createdAt,value
2016-07-31T00:00:49.321Z,70.23
2016-07-31T00:01:49.348Z,70.23
2016-07-31T00:02:49.373Z,70.04
2016-07-31T00:03:49.400Z,69.84
2016-07-31T00:04:49.426Z,69.94
2016-07-31T00:05:49.453Z,70.04
2016-07-31T00:06:49.478Z,70.23
2016-07-31T00:07:49.503Z,70.14
2016-07-31T00:08:49.531Z,70.04
2016-07-31T00:09:49.558Z,70.23
2016-07-31T00:10:49.582Z,70.23
2016-07-31T00:11:49.607Z,70.04
2016-07-31T00:13:49.663Z,70.04
2016-07-31T00:14:49.686Z,69.74
2016-07-31T00:15:49.716Z,69.94
2016-07-31T00:16:49.740Z,69.94
2016-07-31T00:17:49.765Z,69.84
2016-07-31T00:18:49.791Z,70.23
2016-07-31T00:20:49.843Z,70.23
2016-07-31T00:21:49.872Z,70.2
2016-07-31T00:22:49.895Z,70.14
2016-07-31T00:23:49.923Z,70.29
2016-07-31T00:24:49.947Z,70.29
2016-07-31T00:25:49.978Z,70.14
2016-07-31T00:26:50.000Z,70.72
2016-07-31T00:27:50.027Z,70.58
2016-07-31T00:28:50.053Z,70.14
2016-07-31T00:29:50.078Z,70.04
2016-07-31T00:30:50.124Z,70.62
2016-07-31T00:31:50.132Z,70.72
2016-07-31T00:32:50.163Z,70.1
2016-07-31T00:33:50.183Z,70
2016-07-31T00:34:50.208Z,70.23
2016-07-31T00:35:50.242Z,70.1
2016-07-31T00:36:50.265Z,70.58
2016-07-31T00:37:50.287Z,70.2
2016-07-31T00:38:50.312Z,70.29
2016-07-31T00:39:50.340Z,70.1
2016-07-31T00:40:50.369Z,70.04
2016-07-31T00:41:50.391Z,70.48
2016-07-31T00:42:50.418Z,70.62
2016-07-31T00:43:50.451Z,70.42
2016-07-31T00:44:50.468Z,70.29
2016-07-31T00:45:50.499Z,70.52
2016-07-31T00:46:50.522Z,70.48
2016-07-31T00:47:50.547Z,70.39
2016-07-31T00:48:50.573Z,70.58
2016-07-31T00:49:50.602Z,70.58
2016-07-31T00:50:50.625Z,70.48
2016-07-31T00:51:50.653Z,70.58
2016-07-31T00:52:50.678Z,70.48
2016-07-31T00:53:50.708Z,70.68
2016-07-31T00:54:50.728Z,70.29
2016-07-31T00:55:50.758Z,70
2016-07-31T00:56:50.782Z,70.29
2016-07-31T00:57:50.810Z,70.58
2016-07-31T00:58:50.832Z,70.48
2016-07-31T00:59:50.859Z,70.87
2016-07-31T01:00:50.885Z,71.06
2016-07-31T01:01:50.916Z,70.48
2016-07-31T01:02:50.937Z,70.29
2016-07-31T01:03:50.964Z,70.68
2016-07-31T01:04:50.991Z,70.68
2016-07-31T01:05:51.014Z,70.68
2016-07-31T01:06:51.042Z,70.48
2016-07-31T01:07:51.071Z,70.29
2016-07-31T01:08:51.092Z,70.2
2016-07-31T01:09:51.120Z,70.29
2016-07-31T01:10:51.145Z,70.97
2016-07-31T01:11:51.176Z,70.29
2016-07-31T01:12:51.196Z,70.68
2016-07-31T01:13:51.231Z,71.06
2016-07-31T01:14:51.248Z,70.68
2016-07-31T01:15:51.275Z,70.78
2016-07-31T01:16:51.299Z,70.29
2016-07-31T01:17:51.338Z,70.68
2016-07-31T01:18:51.355Z,70.58
2016-07-31T01:19:51.381Z,70.68
2016-07-31T01:20:51.405Z,70.68
2016-07-31T01:21:51.432Z,70.29
2016-07-31T01:22:51.455Z,70.68
2016-07-31T01:23:51.483Z,70
2016-07-31T01:24:51.510Z,70.48
2016-07-31T01:25:51.542Z,70.68
2016-07-31T01:26:51.561Z,70.29
2016-07-31T01:27:51.586Z,70.58
2016-07-31T01:28:51.611Z,70.48
2016-07-31T01:29:51.643Z,70.2
2016-07-31T01:30:51.665Z,70.58
2016-07-31T01:31:51.690Z,70.29
2016-07-31T01:32:51.717Z,70.68
2016-07-31T01:33:51.743Z,70.2
2016-07-31T01:34:51.766Z,70.58
2016-07-31T01:35:51.800Z,70
2016-07-31T01:36:51.821Z,70.48
2016-07-31T01:37:51.847Z,70.2
2016-07-31T01:38:51.872Z,70.2
2016-07-31T01:39:51.899Z,70.04
2016-07-31T01:40:51.925Z,70.52
2016-07-31T01:41:51.951Z,70.58
2016-07-31T01:42:51.977Z,70.1
2016-07-31T01:43:52.003Z,70.48
2016-07-31T01:44:52.027Z,70.52
2016-07-31T01:45:52.069Z,70.1
2016-07-31T01:46:52.079Z,70.32
2016-07-31T01:47:52.107Z,70
2016-07-31T01:48:52.134Z,70.58
2016-07-31T01:49:52.170Z,70.48
2016-07-31T01:50:52.185Z,70.14
2016-07-31T01:51:52.907Z,70.72
2016-07-31T01:52:52.247Z,70
2016-07-31T01:53:52.263Z,69.9
2016-07-31T01:54:52.289Z,70.48
2016-07-31T01:55:53.018Z,70.29
2016-07-31T01:56:52.340Z,70.68
2016-07-31T01:57:52.366Z,70.58
2016-07-31T01:58:52.392Z,70.39
2016-07-31T01:59:52.419Z,70.29
2016-07-31T02:00:52.447Z,70.58
2016-07-31T02:01:52.471Z,70.78
2016-07-31T02:02:52.497Z,70.48
2016-07-31T02:03:52.523Z,70.2
2016-07-31T02:04:52.548Z,70.2
2016-07-31T02:05:52.575Z,70.2
2016-07-31T02:06:52.599Z,70.39
2016-07-31T02:07:52.627Z,70.39
2016-07-31T02:08:52.658Z,70.29
2016-07-31T02:09:52.679Z,71.26
2016-07-31T02:10:52.705Z,70.39
2016-07-31T02:11:52.731Z,70.58
2016-07-31T02:12:52.756Z,70.68
2016-07-31T02:13:52.783Z,70.78
2016-07-31T02:14:52.818Z,70.68
2016-07-31T02:15:52.833Z,70.58
2016-07-31T02:16:52.860Z,70.52
2016-07-31T02:17:52.888Z,70.2
2016-07-31T02:18:52.911Z,70.39
2016-07-31T02:19:52.937Z,70.2
2016-07-31T02:20:52.963Z,69.94
2016-07-31T02:21:52.992Z,70.62
2016-07-31T02:22:53.013Z,70.58
2016-07-31T02:23:53.041Z,70.58
2016-07-31T02:24:53.066Z,70.2
2016-07-31T02:25:53.093Z,70.48
2016-07-31T02:26:53.118Z,70.78
2016-07-31T02:27:53.144Z,70.58
2016-07-31T02:28:53.174Z,70.29
2016-07-31T02:29:53.196Z,70.58
2016-07-31T02:30:53.221Z,71.06
2016-07-31T02:31:53.251Z,71.06
2016-07-31T02:32:53.275Z,70.58
2016-07-31T02:33:53.300Z,70.68
2016-07-31T02:34:53.324Z,70.48
2016-07-31T02:35:53.359Z,70.68
2016-07-31T02:36:53.383Z,70.48
2016-07-31T02:37:53.404Z,70.58
2016-07-31T02:38:53.430Z,70.39
2016-07-31T02:39:53.465Z,70.78
2016-07-31T02:40:53.487Z,70.29
2016-07-31T02:41:53.507Z,70.48
2016-07-31T02:42:53.533Z,70.68
2016-07-31T02:43:53.559Z,70.39
2016-07-31T02:44:53.585Z,70.39
2016-07-31T02:45:53.608Z,70.48
2016-07-31T02:46:53.636Z,70.39
2016-07-31T02:47:53.667Z,70.68
2016-07-31T02:48:53.689Z,70.97
2016-07-31T02:49:53.714Z,70.87
2016-07-31T02:50:53.742Z,71.06
2016-07-31T02:51:53.770Z,70.68
2016-07-31T02:52:53.791Z,70.58
2016-07-31T02:53:54.530Z,70.58
2016-07-31T02:54:53.845Z,70.48
2016-07-31T02:55:53.871Z,70.58
2016-07-31T02:56:53.897Z,70.87
2016-07-31T02:57:53.923Z,70.68
2016-07-31T02:58:53.946Z,70.48
2016-07-31T02:59:53.974Z,70.78
2016-07-31T03:00:53.999Z,70.87
2016-07-31T03:01:54.026Z,70.87
2016-07-31T03:02:54.055Z,70.87
2016-07-31T03:03:54.077Z,70.39
2016-07-31T03:04:54.104Z,70.68
2016-07-31T03:05:54.130Z,70.58
2016-07-31T03:06:54.157Z,70.68
2016-07-31T03:07:54.182Z,70.78
2016-07-31T03:08:54.212Z,70.78
2016-07-31T03:09:54.237Z,70.78
2016-07-31T03:10:54.260Z,70.68
2016-07-31T03:11:54.287Z,70.78
2016-07-31T03:12:54.311Z,71.26
2016-07-31T03:13:54.337Z,70.39
2016-07-31T03:14:54.362Z,70.97
2016-07-31T03:15:54.392Z,70.87
2016-07-31T03:16:54.422Z,70.78
2016-07-31T03:17:54.443Z,70.68
2016-07-31T03:18:54.471Z,70.68
2016-07-31T03:19:54.498Z,70.78
2016-07-31T03:20:54.517Z,70.48
2016-07-31T03:21:54.551Z,70.29
2016-07-31T03:22:54.570Z,70.48
2016-07-31T03:23:55.301Z,70.68
2016-07-31T03:24:54.621Z,70.68
2016-07-31T03:25:54.650Z,70.87
2016-07-31T03:26:55.372Z,70.68
2016-07-31T03:27:54.700Z,71.26
2016-07-31T03:28:54.725Z,71.06
2016-07-31T03:29:54.752Z,70.58
2016-07-31T03:30:54.777Z,70.78
2016-07-31T03:31:54.805Z,71.06
2016-07-31T03:32:54.829Z,70.78
2016-07-31T03:33:54.855Z,70.48
2016-07-31T03:34:54.884Z,70.39
2016-07-31T03:35:54.906Z,70.78
2016-07-31T03:36:54.943Z,70.48
2016-07-31T03:37:54.960Z,70.39
2016-07-31T03:38:54.989Z,71.26
2016-07-31T03:39:55.010Z,70.68
2016-07-31T03:40:55.034Z,70.68
2016-07-31T03:41:55.068Z,70.48
2016-07-31T03:42:55.087Z,70.39
2016-07-31T03:43:55.114Z,70.78
2016-07-31T03:44:55.141Z,70.39
2016-07-31T03:45:55.166Z,70.68
2016-07-31T03:46:55.192Z,70.39
2016-07-31T03:47:55.219Z,70.39
2016-07-31T03:48:55.243Z,70.29
2016-07-31T03:49:55.270Z,70.39
2016-07-31T03:50:55.295Z,70.87
2016-07-31T03:51:55.326Z,70.87
2016-07-31T03:52:55.348Z,70.29
2016-07-31T03:53:55.379Z,70.39
2016-07-31T03:54:55.398Z,70.78
2016-07-31T03:55:55.425Z,71.16
2016-07-31T03:56:55.452Z,71.06
2016-07-31T03:57:55.476Z,70.68
2016-07-31T03:58:55.508Z,70.68
2016-07-31T03:59:55.531Z,70.78
2016-07-31T04:00:55.554Z,70.58
2016-07-31T04:01:55.587Z,70.78
2016-07-31T04:02:55.606Z,70.97
2016-07-31T04:03:55.633Z,70.78
2016-07-31T04:04:55.658Z,71.06
2016-07-31T04:05:55.683Z,70.87
2016-07-31T04:06:55.710Z,70.97
2016-07-31T04:07:55.736Z,70.68
2016-07-31T04:08:55.760Z,70.68
2016-07-31T04:09:55.792Z,71.26
2016-07-31T04:10:55.815Z,71.16
2016-07-31T04:11:55.841Z,71.26
2016-07-31T04:12:55.865Z,71.06
2016-07-31T04:13:55.891Z,70.78
2016-07-31T04:14:55.918Z,70.87
2016-07-31T04:15:55.944Z,70.78
2016-07-31T04:16:55.967Z,70.48
2016-07-31T04:17:55.999Z,70.58
2016-07-31T04:18:56.021Z,71.36
2016-07-31T04:19:56.045Z,71.26
2016-07-31T04:20:56.073Z,71.16
2016-07-31T04:21:56.099Z,70.78
2016-07-31T04:22:56.124Z,70.87
2016-07-31T04:23:56.149Z,70.68
2016-07-31T04:24:56.174Z,70.39
2016-07-31T04:25:56.202Z,70.78
2016-07-31T04:26:56.232Z,70.58
2016-07-31T04:27:56.250Z,70.48
2016-07-31T04:28:56.279Z,70.48
2016-07-31T04:29:56.304Z,70.39
2016-07-31T04:30:56.330Z,70.48
2016-07-31T04:31:56.355Z,71.06
2016-07-31T04:32:56.384Z,70.68
2016-07-31T04:33:56.409Z,70.68
2016-07-31T04:34:56.433Z,70.58
2016-07-31T04:35:56.460Z,71.06
2016-07-31T04:36:56.486Z,70.68
2016-07-31T04:37:56.518Z,70.68
2016-07-31T04:38:56.538Z,70.68
2016-07-31T04:39:56.570Z,70.68
2016-07-31T04:40:56.590Z,70.68
2016-07-31T04:41:56.615Z,70.87
2016-07-31T04:42:56.639Z,70.78
2016-07-31T04:43:56.672Z,70.78
2016-07-31T04:44:56.693Z,70.48
2016-07-31T04:45:56.722Z,71.06
2016-07-31T04:46:56.744Z,70.68
2016-07-31T04:47:56.772Z,70.87
2016-07-31T04:48:56.794Z,70.68
2016-07-31T04:49:56.823Z,71.06
2016-07-31T04:50:56.850Z,70.39
2016-07-31T04:51:56.879Z,71.06
2016-07-31T04:52:56.899Z,70.87
2016-07-31T04:53:56.925Z,70.78
2016-07-31T04:54:56.952Z,70.58
2016-07-31T04:55:56.979Z,70.97
2016-07-31T04:56:57.004Z,71.06
2016-07-31T04:57:57.040Z,70.58
2016-07-31T04:59:57.783Z,70.48
2016-07-31T05:00:57.107Z,70.48
2016-07-31T05:01:57.132Z,70.68
2016-07-31T05:02:57.159Z,70.78
2016-07-31T05:03:57.186Z,70.58
2016-07-31T05:04:57.209Z,70.58
2016-07-31T05:05:57.235Z,70.78
2016-07-31T05:06:57.261Z,70.39
2016-07-31T05:07:57.285Z,70.97
2016-07-31T05:08:57.312Z,70.39
2016-07-31T05:09:57.339Z,70.58
2016-07-31T05:10:57.365Z,70.68
2016-07-31T05:11:57.411Z,70.2
2016-07-31T05:12:57.417Z,70.39
2016-07-31T05:14:57.468Z,70.2
2016-07-31T05:15:57.493Z,70.78
2016-07-31T05:16:57.519Z,70.68
2016-07-31T05:17:57.546Z,70.68
2016-07-31T05:18:57.571Z,70.58
2016-07-31T05:19:57.599Z,70.14
2016-07-31T05:20:57.623Z,70.2
2016-07-31T05:21:57.651Z,70.1
2016-07-31T05:22:57.674Z,70.29
2016-07-31T05:23:57.701Z,70.58
2016-07-31T05:24:57.727Z,70.2
2016-07-31T05:25:57.751Z,70.1
2016-07-31T05:26:57.779Z,70.39
2016-07-31T05:27:57.806Z,70.23
2016-07-31T05:28:57.838Z,70.48
2016-07-31T05:29:57.861Z,70.39
2016-07-31T05:30:57.880Z,70.2
2016-07-31T05:31:57.912Z,70.23
2016-07-31T05:32:57.940Z,70.2
2016-07-31T05:33:57.956Z,70.1
2016-07-31T05:34:57.985Z,70.2
2016-07-31T05:35:58.014Z,69.81
2016-07-31T05:36:58.039Z,69.94
2016-07-31T05:37:58.072Z,69.94
2016-07-31T05:38:58.090Z,70.23
2016-07-31T05:39:58.121Z,70.04
2016-07-31T05:40:58.142Z,70
2016-07-31T05:41:58.167Z,69.56
2016-07-31T05:42:58.193Z,70.14
2016-07-31T05:43:58.220Z,70.14
2016-07-31T05:44:58.245Z,70.32
2016-07-31T05:45:58.274Z,70
2016-07-31T05:46:58.304Z,69.62
2016-07-31T05:47:58.322Z,69.74
2016-07-31T05:48:58.349Z,69.65
2016-07-31T05:49:58.378Z,69.65
2016-07-31T05:50:58.398Z,69.84
2016-07-31T05:51:58.428Z,69.26
2016-07-31T05:52:58.452Z,69.26
2016-07-31T05:53:58.479Z,69.36
2016-07-31T05:54:58.504Z,69.26
2016-07-31T05:55:58.532Z,69.07
2016-07-31T05:56:58.555Z,68.98
2016-07-31T05:57:58.583Z,69.56
2016-07-31T05:58:58.608Z,69.07
2016-07-31T05:59:58.641Z,69.07
2016-07-31T06:00:58.665Z,69.17
2016-07-31T06:01:58.688Z,69.17
2016-07-31T06:02:58.711Z,69.17
2016-07-31T06:03:58.736Z,68.98
2016-07-31T06:04:58.764Z,68.98
2016-07-31T06:05:58.795Z,68.59
2016-07-31T06:06:58.816Z,68.78
2016-07-31T06:07:58.843Z,68.88
2016-07-31T06:08:58.873Z,69.07
2016-07-31T06:09:58.894Z,69.07
2016-07-31T06:10:58.920Z,68.49
2016-07-31T06:11:58.945Z,68.91
2016-07-31T06:12:58.971Z,68.3
2016-07-31T06:13:59.000Z,68.3
2016-07-31T06:14:59.024Z,68.62
2016-07-31T06:15:59.052Z,68.62
2016-07-31T06:16:59.077Z,68.62
2016-07-31T06:17:59.103Z,68.24
2016-07-31T06:18:59.129Z,68.24
2016-07-31T06:19:59.155Z,68.04
2016-07-31T06:20:59.182Z,68.04
2016-07-31T06:21:59.210Z,68.33
2016-07-31T06:22:59.235Z,68.14
2016-07-31T06:23:59.262Z,67.85
2016-07-31T06:24:59.284Z,67.94
2016-07-31T06:25:59.318Z,67.75
2016-07-31T06:26:59.346Z,68.04
2016-07-31T06:27:59.368Z,68.04
2016-07-31T06:28:59.392Z,68.14
2016-07-31T06:29:59.418Z,68.04
2016-07-31T06:30:59.447Z,68.43
2016-07-31T06:31:59.472Z,68.04
2016-07-31T06:33:00.204Z,68.04
2016-07-31T06:33:59.522Z,68.43
2016-07-31T06:34:59.548Z,67.46
2016-07-31T06:35:59.581Z,67.46
2016-07-31T06:36:59.600Z,67.46
2016-07-31T06:37:59.627Z,67.56
2016-07-31T06:38:59.653Z,67.56
2016-07-31T06:39:59.680Z,68.04
2016-07-31T06:40:59.724Z,68.04
2016-07-31T06:41:59.735Z,67.46
2016-07-31T06:42:59.758Z,67.46
2016-07-31T06:44:00.488Z,67.75
2016-07-31T06:44:59.810Z,67.27
2016-07-31T06:45:59.840Z,67.17
2016-07-31T06:46:59.864Z,67.36
2016-07-31T06:47:59.889Z,67.21
2016-07-31T06:48:59.917Z,66.88
2016-07-31T06:49:59.942Z,67.08
2016-07-31T06:50:59.972Z,67.01
2016-07-31T06:51:59.996Z,66.63
2016-07-31T06:53:00.022Z,66.53
2016-07-31T06:54:00.048Z,66.43
2016-07-31T06:55:00.076Z,66.24
2016-07-31T06:56:00.104Z,66.33
2016-07-31T06:57:00.126Z,66.33
2016-07-31T06:58:00.155Z,66.53
2016-07-31T06:59:00.180Z,66.43
2016-07-31T07:00:00.207Z,66.53
2016-07-31T07:01:00.234Z,66.72
2016-07-31T07:02:00.259Z,66.43
2016-07-31T07:03:00.286Z,66.24
2016-07-31T07:04:00.312Z,66.63
2016-07-31T07:05:00.341Z,66.24
2016-07-31T07:06:00.367Z,66.14
2016-07-31T07:07:00.393Z,66.14
2016-07-31T07:08:00.419Z,66.14
2016-07-31T07:09:00.447Z,66.14
2016-07-31T07:10:00.474Z,65.5
2016-07-31T07:11:00.499Z,65.5
2016-07-31T07:12:00.531Z,65.5
2016-07-31T07:13:00.563Z,65.5
2016-07-31T07:14:00.579Z,65.27
2016-07-31T07:15:00.607Z,65.4
2016-07-31T07:16:00.633Z,65.2
2016-07-31T07:17:00.659Z,65.5
2016-07-31T07:18:00.685Z,65.5
2016-07-31T07:19:00.711Z,65.59
2016-07-31T07:20:00.744Z,65.01
2016-07-31T07:21:00.767Z,65.11
2016-07-31T07:22:00.792Z,65.4
2016-07-31T07:23:00.824Z,65.2
2016-07-31T07:24:00.847Z,65.5
2016-07-31T07:25:00.872Z,65.4
2016-07-31T07:26:00.901Z,65.5
2016-07-31T07:27:00.927Z,65.01
2016-07-31T07:28:00.953Z,65.3
2016-07-31T07:29:00.980Z,65.11
2016-07-31T07:30:01.008Z,65.3
2016-07-31T07:31:01.033Z,65.3
2016-07-31T07:32:01.065Z,65.4
2016-07-31T07:33:01.088Z,65.4
2016-07-31T07:34:01.113Z,65.5
2016-07-31T07:35:01.143Z,65.79
2016-07-31T07:36:01.170Z,65.59
2016-07-31T07:37:01.196Z,65.3
2016-07-31T07:38:01.225Z,65.3
2016-07-31T07:39:01.251Z,65.3
2016-07-31T07:40:01.278Z,65.5
2016-07-31T07:41:01.314Z,65.4
2016-07-31T07:42:01.331Z,65.4
2016-07-31T07:43:01.359Z,65.79
2016-07-31T07:44:01.387Z,65.88
2016-07-31T07:45:01.411Z,65.79
2016-07-31T07:46:01.440Z,65.66
2016-07-31T07:47:01.467Z,65.85
2016-07-31T07:48:01.492Z,65.88
2016-07-31T07:49:01.522Z,65.59
2016-07-31T07:50:01.548Z,65.88
2016-07-31T07:51:01.574Z,65.75
2016-07-31T07:52:01.599Z,65.98
2016-07-31T07:53:01.629Z,65.98
2016-07-31T07:54:01.657Z,65.69
2016-07-31T07:55:01.683Z,65.5
2016-07-31T07:56:01.710Z,65.4
2016-07-31T07:57:01.736Z,65.4
2016-07-31T07:58:01.765Z,65.4
2016-07-31T07:59:01.791Z,65.88
2016-07-31T08:00:01.820Z,65.66
2016-07-31T08:01:01.846Z,65.69
2016-07-31T08:02:01.873Z,65.66
2016-07-31T08:03:01.897Z,65.5
2016-07-31T08:04:01.927Z,65.75
2016-07-31T08:05:01.954Z,65.47
2016-07-31T08:06:01.979Z,65.59
2016-07-31T08:07:02.008Z,65.69
2016-07-31T08:08:02.036Z,65.59
2016-07-31T08:09:02.061Z,65.85
2016-07-31T08:10:02.088Z,65.85
2016-07-31T08:11:02.117Z,65.47
2016-07-31T08:12:02.140Z,66.33
2016-07-31T08:13:02.169Z,65.98
2016-07-31T08:14:02.196Z,66.05
2016-07-31T08:15:02.223Z,66.14
2016-07-31T08:16:02.259Z,65.95
2016-07-31T08:17:02.277Z,65.95
2016-07-31T08:18:02.308Z,66.33
2016-07-31T08:19:02.331Z,66.17
2016-07-31T08:20:02.365Z,65.95
2016-07-31T08:21:02.383Z,66.05
2016-07-31T08:22:02.412Z,65.75
2016-07-31T08:23:02.439Z,65.56
2016-07-31T08:24:02.475Z,66.14
2016-07-31T08:25:02.492Z,65.66
2016-07-31T08:26:03.222Z,66.05
2016-07-31T08:27:02.546Z,65.3
2016-07-31T08:28:02.571Z,65.2
2016-07-31T08:29:02.599Z,65.01
2016-07-31T08:30:02.635Z,64.82
2016-07-31T08:31:02.654Z,64.53
2016-07-31T08:32:02.679Z,64.62
2016-07-31T08:33:02.705Z,64.62
2016-07-31T08:34:02.736Z,64.92
2016-07-31T08:35:02.761Z,64.53
2016-07-31T08:36:02.787Z,64.92
2016-07-31T08:37:02.814Z,65.01
2016-07-31T08:38:03.541Z,64.82
2016-07-31T08:39:02.868Z,65.01
2016-07-31T08:40:02.897Z,65.11
2016-07-31T08:41:02.925Z,64.82
2016-07-31T08:42:02.956Z,64.43
2016-07-31T08:43:02.977Z,64.62
2016-07-31T08:44:03.006Z,64.14
2016-07-31T08:45:03.035Z,64.43
2016-07-31T08:46:03.059Z,63.79
2016-07-31T08:47:03.086Z,63.01
2016-07-31T08:48:03.114Z,62.82
2016-07-31T08:49:03.141Z,62.17
2016-07-31T08:50:03.167Z,61.88
2016-07-31T08:51:03.196Z,62.07
2016-07-31T08:52:03.223Z,62.75
2016-07-31T08:53:03.250Z,63.24
2016-07-31T08:54:03.278Z,63.01
2016-07-31T08:55:04.019Z,63.31
2016-07-31T08:56:03.340Z,62.92
2016-07-31T08:57:03.360Z,63.59
2016-07-31T08:58:03.387Z,63.69
2016-07-31T08:59:03.414Z,63.59
2016-07-31T09:00:03.442Z,63.89
2016-07-31T09:01:03.471Z,63.79
2016-07-31T09:02:03.505Z,63.98
2016-07-31T09:03:03.525Z,63.89
2016-07-31T09:04:03.558Z,63.98
2016-07-31T09:05:03.580Z,63.98
2016-07-31T09:06:03.609Z,63.98
2016-07-31T09:07:03.635Z,63.98
2016-07-31T09:08:03.664Z,63.89
2016-07-31T09:09:03.693Z,64.27
2016-07-31T09:10:03.719Z,63.98
2016-07-31T09:11:03.746Z,64.37
2016-07-31T09:12:04.476Z,64.04
2016-07-31T09:13:03.802Z,64.24
2016-07-31T09:14:03.830Z,64.14
2016-07-31T09:15:03.858Z,64.14
2016-07-31T09:16:03.888Z,64.53
2016-07-31T09:17:03.914Z,64.14
2016-07-31T09:18:03.944Z,64.53
2016-07-31T09:19:03.968Z,64.53
2016-07-31T09:20:04.004Z,64.34
2016-07-31T09:21:04.023Z,64.82
2016-07-31T09:22:04.748Z,64.62
2016-07-31T09:23:04.079Z,64.82
2016-07-31T09:24:04.116Z,64.92
2016-07-31T09:25:04.133Z,64.92
2016-07-31T09:26:04.174Z,65.5
2016-07-31T09:27:04.188Z,65.3
2016-07-31T09:28:04.218Z,65.2
2016-07-31T09:29:04.243Z,65.3
2016-07-31T09:30:04.274Z,65.5
2016-07-31T09:31:04.298Z,65.3
2016-07-31T09:32:04.326Z,65.4
2016-07-31T09:33:04.355Z,65.3
2016-07-31T09:34:04.383Z,65.2
2016-07-31T09:35:04.414Z,65.3
2016-07-31T09:36:04.438Z,65.37
2016-07-31T09:37:04.462Z,65.27
2016-07-31T09:38:05.188Z,65.3
2016-07-31T09:39:04.519Z,65.4
2016-07-31T09:40:04.545Z,65.69
2016-07-31T09:41:04.572Z,65.01
2016-07-31T09:42:04.611Z,65.5
2016-07-31T09:43:04.632Z,65.2
2016-07-31T09:44:04.658Z,65.3
2016-07-31T09:45:04.688Z,65.3
2016-07-31T09:46:04.709Z,65.2
2016-07-31T09:47:04.737Z,65.3
2016-07-31T09:48:04.768Z,65.3
2016-07-31T09:49:04.794Z,65.11
2016-07-31T09:50:04.818Z,65.3
2016-07-31T09:51:04.845Z,65.3
2016-07-31T09:52:04.869Z,65.11
2016-07-31T09:53:04.897Z,65.3
2016-07-31T09:54:04.925Z,65.17
2016-07-31T09:55:04.952Z,65.5
2016-07-31T09:56:04.983Z,65.2
2016-07-31T09:57:05.009Z,65.2
2016-07-31T09:58:05.035Z,65.3
2016-07-31T09:59:05.063Z,65.5
2016-07-31T10:01:05.128Z,65.4
2016-07-31T10:02:05.147Z,64.62
2016-07-31T10:03:05.171Z,64.82
2016-07-31T10:04:05.199Z,65.01
2016-07-31T10:05:05.226Z,65.01
2016-07-31T10:06:05.254Z,65.01
2016-07-31T10:07:05.978Z,64.82
2016-07-31T10:08:05.306Z,64.92
2016-07-31T10:09:05.334Z,64.82
2016-07-31T10:10:05.362Z,64.82
2016-07-31T10:11:05.387Z,64.92
2016-07-31T10:12:05.415Z,64.53
2016-07-31T10:13:05.443Z,64.53
2016-07-31T10:14:05.468Z,64.27
2016-07-31T10:15:05.501Z,63.59
2016-07-31T10:16:05.524Z,63.69
2016-07-31T10:17:05.551Z,63.49
2016-07-31T10:18:05.579Z,63.31
2016-07-31T10:19:05.606Z,63.49
2016-07-31T10:20:05.635Z,63.98
2016-07-31T10:21:05.661Z,63.79
2016-07-31T10:22:05.696Z,63.59
2016-07-31T10:23:05.716Z,63.69
2016-07-31T10:24:05.759Z,63.69
2016-07-31T10:25:05.769Z,63.4
2016-07-31T10:26:05.799Z,63.59
2016-07-31T10:27:05.829Z,63.89
2016-07-31T10:28:05.862Z,63.98
2016-07-31T10:29:05.884Z,63.79
2016-07-31T10:30:05.912Z,63.89
2016-07-31T10:31:05.936Z,63.79
2016-07-31T10:32:05.963Z,63.69
2016-07-31T10:33:05.991Z,63.4
2016-07-31T10:34:06.020Z,63.01
2016-07-31T10:35:06.053Z,63.4
2016-07-31T10:36:06.081Z,63.4
2016-07-31T10:37:06.103Z,63.31
2016-07-31T10:38:06.130Z,63.4
2016-07-31T10:39:06.159Z,63.31
2016-07-31T10:40:06.187Z,63.31
2016-07-31T10:41:06.212Z,62.53
2016-07-31T10:42:06.243Z,62.85
2016-07-31T10:43:06.270Z,61.59
2016-07-31T10:44:06.299Z,62.07
2016-07-31T10:45:06.325Z,62.17
2016-07-31T10:46:06.353Z,61.79
2016-07-31T10:47:06.380Z,61.98
2016-07-31T10:48:06.409Z,61.59
2016-07-31T10:49:06.434Z,61.59
2016-07-31T10:50:06.469Z,61.59
2016-07-31T10:51:06.490Z,62.07
2016-07-31T10:52:06.520Z,61.59
2016-07-31T10:53:06.546Z,61.4
2016-07-31T10:54:06.575Z,61.79
2016-07-31T10:55:06.602Z,61.4
2016-07-31T10:56:06.630Z,61.4
2016-07-31T10:57:06.658Z,61.01
2016-07-31T10:58:06.686Z,61.24
2016-07-31T10:59:06.715Z,61.33
2016-07-31T11:00:06.743Z,60.85
2016-07-31T11:01:06.772Z,61.43
2016-07-31T11:02:06.800Z,61.04
2016-07-31T11:03:06.825Z,60.94
2016-07-31T11:04:06.855Z,61.24
2016-07-31T11:05:06.882Z,60.85
2016-07-31T11:06:06.911Z,61.04
2016-07-31T11:07:06.937Z,61.14
2016-07-31T11:08:06.972Z,60.65
2016-07-31T11:09:06.995Z,60.85
2016-07-31T11:10:07.036Z,60.85
2016-07-31T11:11:07.050Z,61.33
2016-07-31T11:12:07.087Z,60.94
2016-07-31T11:13:07.110Z,61.04
2016-07-31T11:14:07.135Z,60.94
2016-07-31T11:15:07.163Z,61.14
2016-07-31T11:16:07.192Z,61.14
2016-07-31T11:17:07.223Z,61.14
2016-07-31T11:18:07.247Z,61.14
2016-07-31T11:19:07.273Z,61.14
2016-07-31T11:20:07.303Z,61.24
2016-07-31T11:21:07.331Z,61.14
2016-07-31T11:22:07.364Z,61.33
2016-07-31T11:23:07.387Z,61.14
2016-07-31T11:24:07.416Z,60.55
2016-07-31T11:25:07.442Z,60.36
2016-07-31T11:26:07.476Z,60.55
2016-07-31T11:27:07.500Z,60.49
2016-07-31T11:28:07.532Z,60.55
2016-07-31T11:29:07.554Z,60.46
2016-07-31T11:30:07.583Z,60.46
2016-07-31T11:31:07.610Z,60.94
2016-07-31T11:32:08.352Z,60.75
2016-07-31T11:33:07.668Z,61.14
2016-07-31T11:34:07.694Z,60.94
2016-07-31T11:35:07.723Z,61.04
2016-07-31T11:36:07.751Z,61.04
2016-07-31T11:37:07.778Z,60.65
2016-07-31T11:38:07.808Z,60.75
2016-07-31T11:39:07.836Z,60.75
2016-07-31T11:40:07.863Z,60.65
2016-07-31T11:41:07.894Z,60.75
2016-07-31T11:42:07.924Z,60.65
2016-07-31T11:43:07.949Z,60.55
2016-07-31T11:44:07.976Z,59.97
2016-07-31T11:45:08.004Z,60.75
2016-07-31T11:46:08.030Z,60.27
2016-07-31T11:47:08.067Z,60.27
2016-07-31T11:48:08.092Z,60.3
2016-07-31T11:49:08.116Z,60.46
2016-07-31T11:50:08.145Z,60.2
2016-07-31T11:51:08.174Z,60.36
2016-07-31T11:52:08.203Z,60.49
2016-07-31T11:53:08.230Z,60.2
2016-07-31T11:54:08.260Z,60.58
2016-07-31T11:55:08.287Z,60.39
2016-07-31T11:56:09.019Z,60.36
2016-07-31T11:57:08.341Z,60.27
2016-07-31T11:58:08.371Z,60.55
2016-07-31T11:59:08.399Z,60.2
2016-07-31T12:00:08.427Z,60.1
2016-07-31T12:01:08.452Z,59.81
2016-07-31T12:02:08.486Z,60.1
2016-07-31T12:03:08.511Z,60.1
2016-07-31T12:04:08.539Z,59.71
2016-07-31T12:05:08.567Z,60.1
2016-07-31T12:06:08.599Z,59.88
2016-07-31T12:07:08.622Z,60.27
2016-07-31T12:08:08.659Z,60.3
2016-07-31T12:09:08.679Z,60.1
2016-07-31T12:10:08.706Z,60.97
2016-07-31T12:11:08.741Z,60.75
2016-07-31T12:12:08.764Z,60.17
2016-07-31T12:13:08.791Z,60.68
2016-07-31T12:14:08.833Z,60.3
2016-07-31T12:15:08.849Z,60
2016-07-31T12:16:08.883Z,60.2
2016-07-31T12:17:08.903Z,60.2
2016-07-31T12:18:08.936Z,60.2
2016-07-31T12:19:08.959Z,60.39
2016-07-31T12:20:08.994Z,60
2016-07-31T12:21:09.017Z,59.81
2016-07-31T12:22:09.047Z,59.81
2016-07-31T12:23:09.073Z,60.2
2016-07-31T12:24:09.102Z,60.2
2016-07-31T12:25:09.140Z,60.2
2016-07-31T12:26:09.159Z,59.61
2016-07-31T12:27:09.186Z,59.71
2016-07-31T12:28:09.224Z,59.81
2016-07-31T12:29:09.242Z,60.49
2016-07-31T12:30:09.274Z,60.27
2016-07-31T12:31:09.298Z,60.27
2016-07-31T12:32:09.326Z,60.85
2016-07-31T12:33:09.353Z,60.55
2016-07-31T12:34:09.383Z,61.04
2016-07-31T12:35:09.409Z,60.85
2016-07-31T12:36:09.440Z,61.04
2016-07-31T12:37:09.468Z,61.14
2016-07-31T12:38:09.493Z,61.04
2016-07-31T12:39:09.523Z,61.04
2016-07-31T12:40:09.553Z,61.72
2016-07-31T12:41:09.584Z,61.62
2016-07-31T12:42:09.608Z,61.4
2016-07-31T12:43:09.636Z,61.49
2016-07-31T12:44:09.665Z,61.49
2016-07-31T12:45:09.692Z,61.59
2016-07-31T12:46:09.722Z,61.49
2016-07-31T12:47:09.749Z,61.98
2016-07-31T12:48:09.776Z,61.69
2016-07-31T12:49:09.806Z,61.98
2016-07-31T12:50:09.835Z,61.98
2016-07-31T12:51:09.863Z,61.98
2016-07-31T12:52:10.592Z,61.98
2016-07-31T12:53:09.918Z,62.95
2016-07-31T12:54:09.948Z,62.75
2016-07-31T12:55:09.973Z,62.63
2016-07-31T12:56:10.003Z,63.11
2016-07-31T12:57:10.040Z,63.49
2016-07-31T12:58:10.060Z,63.01
2016-07-31T12:59:10.090Z,63.98
2016-07-31T13:00:10.115Z,63.69
2016-07-31T13:01:10.144Z,63.98
2016-07-31T13:02:10.171Z,63.79
2016-07-31T13:03:10.199Z,63.98